createdAt,value
2023-08-25T00:00:50.891Z,5.20
2023-08-25T00:01:50.899Z,5.00
2023-08-25T00:02:50.908Z,4.60
2023-08-25T00:03:50.878Z,5.20
2023-08-25T00:04:50.812Z,5.00
2023-08-25T00:05:50.826Z,5.50
2023-08-25T00:06:50.814Z,4.70
2023-08-25T00:07:51.050Z,5.10
2023-08-25T00:08:50.788Z,4.80
2023-08-25T00:09:50.773Z,4.60
2023-08-25T00:10:50.752Z,4.80
2023-08-25T00:11:50.961Z,5.70
2023-08-25T00:12:50.745Z,4.60
2023-08-25T00:13:50.750Z,4.50
2023-08-25T00:14:50.718Z,4.50
2023-08-25T00:15:50.757Z,4.60
2023-08-25T00:16:50.692Z,4.80
2023-08-25T00:17:50.846Z,4.70
2023-08-25T00:18:50.684Z,4.90
2023-08-25T00:19:50.667Z,4.80
2023-08-25T00:20:50.650Z,4.50
2023-08-25T00:21:50.640Z,5.20
2023-08-25T00:22:50.631Z,4.70
2023-08-25T00:23:50.659Z,4.40
2023-08-25T00:24:50.613Z,4.80
2023-08-25T00:25:50.607Z,4.50
2023-08-25T00:26:50.598Z,4.50
2023-08-25T00:27:50.696Z,4.60
2023-08-25T00:28:50.574Z,4.70
2023-08-25T00:29:50.576Z,4.90
2023-08-25T00:30:50.635Z,4.40
2023-08-25T00:31:50.549Z,4.60
2023-08-25T00:32:50.600Z,4.30
2023-08-25T00:33:50.517Z,4.40
2023-08-25T00:34:50.531Z,4.40
2023-08-25T00:35:50.555Z,4.70
2023-08-25T00:36:50.506Z,4.00
2023-08-25T00:37:50.861Z,4.30
2023-08-25T00:38:50.465Z,4.30
2023-08-25T00:39:50.466Z,4.50
2023-08-25T00:40:50.443Z,4.30
2023-08-25T00:41:50.458Z,4.60
2023-08-25T00:42:50.429Z,4.10
2023-08-25T00:43:50.433Z,4.20
2023-08-25T00:44:50.434Z,3.90
2023-08-25T00:45:50.410Z,4.50
2023-08-25T00:46:50.424Z,3.90
2023-08-25T00:47:50.611Z,4.30
2023-08-25T00:48:50.368Z,4.30
2023-08-25T00:49:50.353Z,4.50
2023-08-25T00:50:50.354Z,4.50
2023-08-25T00:51:50.364Z,4.40
2023-08-25T00:52:50.315Z,4.10
2023-08-25T00:53:50.329Z,4.30
2023-08-25T00:54:50.309Z,4.00
2023-08-25T00:55:50.306Z,4.00
2023-08-25T00:56:50.273Z,4.30
2023-08-25T00:57:50.611Z,4.10
2023-08-25T00:58:50.257Z,4.30
2023-08-25T00:59:50.260Z,4.20
2023-08-25T01:00:50.272Z,4.40
2023-08-25T01:01:50.257Z,4.00
2023-08-25T01:02:50.395Z,4.40
2023-08-25T01:03:50.214Z,4.10
2023-08-25T01:04:50.191Z,3.90
2023-08-25T01:05:50.224Z,3.90
2023-08-25T01:06:50.171Z,4.40
2023-08-25T01:07:50.266Z,4.30
2023-08-25T01:08:50.166Z,4.20
2023-08-25T01:09:50.133Z,4.10
2023-08-25T01:10:50.130Z,4.10
2023-08-25T01:11:50.162Z,4.30
2023-08-25T01:12:50.107Z,4.20
2023-08-25T01:13:50.094Z,3.70
2023-08-25T01:14:50.093Z,4.00
2023-08-25T01:15:50.097Z,4.80
2023-08-25T01:16:50.124Z,4.10
2023-08-25T01:17:50.399Z,6.40
2023-08-25T01:18:50.070Z,3.90
2023-08-25T01:19:50.033Z,3.90
2023-08-25T01:20:50.024Z,4.00
2023-08-25T01:21:50.011Z,4.00
2023-08-25T01:22:50.007Z,3.90
2023-08-25T01:23:50.013Z,4.90
2023-08-25T01:24:49.979Z,3.70
2023-08-25T01:25:49.985Z,3.70
2023-08-25T01:26:49.963Z,3.90
2023-08-25T01:27:50.382Z,3.50
2023-08-25T01:28:49.939Z,3.60
2023-08-25T01:29:49.955Z,3.50
2023-08-25T01:30:49.956Z,3.30
2023-08-25T01:31:49.913Z,3.90
2023-08-25T01:32:50.008Z,3.30
2023-08-25T01:33:49.891Z,3.50
2023-08-25T01:34:49.894Z,3.30
2023-08-25T01:35:50.333Z,3.30
2023-08-25T01:36:49.907Z,3.30
2023-08-25T01:37:49.863Z,3.20
2023-08-25T01:38:49.901Z,3.50
2023-08-25T01:39:49.910Z,3.70
2023-08-25T01:40:49.812Z,3.50
2023-08-25T01:41:49.839Z,3.90
2023-08-25T01:42:49.794Z,3.40
2023-08-25T01:43:49.773Z,3.30
2023-08-25T01:44:49.774Z,3.40
2023-08-25T01:45:49.765Z,3.50
2023-08-25T01:46:49.738Z,3.50
2023-08-25T01:47:49.781Z,3.40
2023-08-25T01:48:49.721Z,3.60
2023-08-25T01:49:49.712Z,3.70
2023-08-25T01:50:49.697Z,3.70
2023-08-25T01:51:49.689Z,3.40
2023-08-25T01:52:49.679Z,3.60
2023-08-25T01:53:49.694Z,3.70
2023-08-25T01:54:49.649Z,3.70
2023-08-25T01:55:49.645Z,3.30
2023-08-25T01:56:49.626Z,3.70
2023-08-25T01:57:49.626Z,3.40
2023-08-25T01:58:49.618Z,3.60
2023-08-25T01:59:49.617Z,3.80
2023-08-25T02:00:49.593Z,3.20
2023-08-25T02:01:49.629Z,4.70
2023-08-25T02:02:49.574Z,3.20
2023-08-25T02:03:49.566Z,3.40
2023-08-25T02:04:49.563Z,3.30
2023-08-25T02:05:49.688Z,3.40
2023-08-25T02:06:49.527Z,3.40
2023-08-25T02:07:49.517Z,3.50
2023-08-25T02:08:49.510Z,3.70
2023-08-25T02:09:49.490Z,3.40
2023-08-25T02:10:49.505Z,3.80
2023-08-25T02:11:49.497Z,3.50
2023-08-25T02:12:49.468Z,3.40
2023-08-25T02:13:49.454Z,3.50
2023-08-25T02:14:49.439Z,3.90
2023-08-25T02:15:49.470Z,3.80
2023-08-25T02:16:49.426Z,3.70
2023-08-25T02:17:49.444Z,3.40
2023-08-25T02:18:49.393Z,3.60
2023-08-25T02:19:49.386Z,3.50
2023-08-25T02:20:49.378Z,3.50
2023-08-25T02:21:49.375Z,3.80
2023-08-25T02:22:49.354Z,3.80
2023-08-25T02:23:49.364Z,3.70
2023-08-25T02:24:49.333Z,3.70
2023-08-25T02:25:49.332Z,3.90
2023-08-25T02:26:49.312Z,3.80
2023-08-25T02:27:49.304Z,3.50
2023-08-25T02:28:49.285Z,4.00
2023-08-25T02:29:49.298Z,3.70
2023-08-25T02:30:49.277Z,3.70
2023-08-25T02:31:49.333Z,3.70
2023-08-25T02:32:49.286Z,3.80
2023-08-25T02:33:49.239Z,4.20
2023-08-25T02:34:49.226Z,3.70
2023-08-25T02:35:49.262Z,3.80
2023-08-25T02:36:49.200Z,3.90
2023-08-25T02:37:49.193Z,4.20
2023-08-25T02:38:49.181Z,3.90
2023-08-25T02:39:49.177Z,3.80
2023-08-25T02:40:49.160Z,4.10
2023-08-25T02:41:49.179Z,3.50
2023-08-25T02:42:49.157Z,3.60
2023-08-25T02:43:49.171Z,3.60
2023-08-25T02:44:49.120Z,3.60
2023-08-25T02:45:49.124Z,3.70
2023-08-25T02:46:49.106Z,4.00
2023-08-25T02:47:49.138Z,4.30
2023-08-25T02:48:49.089Z,4.60
2023-08-25T02:49:49.067Z,4.10
2023-08-25T02:50:49.053Z,4.20
2023-08-25T02:51:49.052Z,4.90
2023-08-25T02:52:49.049Z,4.40
2023-08-25T02:53:49.054Z,3.90
2023-08-25T02:54:49.029Z,3.90
2023-08-25T02:55:49.002Z,4.10
2023-08-25T02:56:48.991Z,4.00
2023-08-25T02:57:49.006Z,4.00
2023-08-25T02:58:48.970Z,4.40
2023-08-25T02:59:48.979Z,4.60
2023-08-25T03:00:48.949Z,4.30
2023-08-25T03:01:49.040Z,4.10
2023-08-25T03:02:48.966Z,4.40
2023-08-25T03:03:48.950Z,4.10
2023-08-25T03:04:48.908Z,4.40
2023-08-25T03:05:48.916Z,4.20
2023-08-25T03:06:48.884Z,4.30
2023-08-25T03:07:48.936Z,4.50
2023-08-25T03:08:48.860Z,4.60
2023-08-25T03:09:48.857Z,4.20
2023-08-25T03:10:48.851Z,4.40
2023-08-25T03:11:48.856Z,4.30
2023-08-25T03:12:48.824Z,4.30
2023-08-25T03:13:48.815Z,4.70
2023-08-25T03:14:48.805Z,4.10
2023-08-25T03:15:48.820Z,4.40
2023-08-25T03:16:48.778Z,4.40
2023-08-25T03:17:48.865Z,4.60
2023-08-25T03:18:48.756Z,4.70
2023-08-25T03:19:48.751Z,4.40
2023-08-25T03:20:48.743Z,5.00
2023-08-25T03:21:48.728Z,4.70
2023-08-25T03:22:48.736Z,5.20
2023-08-25T03:23:48.731Z,4.70
2023-08-25T03:24:48.704Z,4.70
2023-08-25T03:25:48.685Z,4.70
2023-08-25T03:26:48.672Z,6.40
2023-08-25T03:27:48.690Z,6.00
2023-08-25T03:28:48.665Z,4.70
2023-08-25T03:29:48.671Z,5.10
2023-08-25T03:30:48.655Z,5.00
2023-08-25T03:31:48.623Z,4.90
2023-08-25T03:32:48.660Z,5.20
2023-08-25T03:33:48.616Z,5.20
2023-08-25T03:34:48.593Z,5.20
2023-08-25T03:35:48.605Z,4.90
2023-08-25T03:36:48.574Z,5.30
2023-08-25T03:37:48.630Z,5.00
2023-08-25T03:38:48.560Z,5.60
2023-08-25T03:39:48.534Z,5.40
2023-08-25T03:40:48.555Z,5.70
2023-08-25T03:41:48.533Z,6.10
2023-08-25T03:42:48.503Z,5.50
2023-08-25T03:43:48.500Z,5.30
2023-08-25T03:44:48.512Z,5.60
2023-08-25T03:45:48.483Z,5.50
2023-08-25T03:46:48.502Z,6.00
2023-08-25T03:47:48.550Z,5.70
2023-08-25T03:48:48.458Z,5.50
2023-08-25T03:49:48.443Z,5.80
2023-08-25T03:50:48.429Z,5.20
2023-08-25T03:51:48.420Z,5.00
2023-08-25T03:52:48.418Z,4.60
2023-08-25T03:53:48.428Z,5.10
2023-08-25T03:54:48.384Z,5.40
2023-08-25T03:55:48.364Z,5.10
2023-08-25T03:56:48.366Z,5.60
2023-08-25T03:57:48.366Z,6.00
2023-08-25T03:58:48.340Z,6.80
2023-08-25T03:59:48.358Z,5.10
2023-08-25T04:00:48.355Z,5.90
2023-08-25T04:01:48.306Z,5.60
2023-08-25T04:02:48.333Z,5.20
2023-08-25T04:03:48.318Z,5.70
2023-08-25T04:04:48.277Z,5.20
2023-08-25T04:05:48.281Z,5.40
2023-08-25T04:06:48.249Z,5.40
2023-08-25T04:07:48.245Z,5.10
2023-08-25T04:08:48.232Z,5.60
2023-08-25T04:09:48.217Z,5.20
2023-08-25T04:10:48.205Z,5.00
2023-08-25T04:11:48.217Z,4.90
2023-08-25T04:12:48.190Z,6.20
2023-08-25T04:13:48.182Z,5.40
2023-08-25T04:14:48.169Z,5.40
2023-08-25T04:15:48.150Z,5.40
2023-08-25T04:16:48.226Z,5.30
2023-08-25T04:17:48.224Z,5.80
2023-08-25T04:18:48.142Z,6.00
2023-08-25T04:19:48.120Z,6.30
2023-08-25T04:20:48.129Z,6.40
2023-08-25T04:21:48.089Z,6.80
2023-08-25T04:22:48.092Z,6.10
2023-08-25T04:23:48.104Z,6.90
2023-08-25T04:24:48.057Z,6.10
2023-08-25T04:25:48.076Z,6.60
2023-08-25T04:26:48.070Z,6.40
2023-08-25T04:27:48.022Z,6.00
2023-08-25T04:28:48.013Z,6.40
2023-08-25T04:29:48.126Z,6.20
2023-08-25T04:30:47.998Z,5.60
2023-08-25T04:31:47.980Z,6.30
2023-08-25T04:32:48.006Z,6.30
2023-08-25T04:33:47.966Z,6.00
2023-08-25T04:34:48.000Z,6.30
2023-08-25T04:35:47.961Z,5.70
2023-08-25T04:36:47.937Z,5.80
2023-08-25T04:37:47.912Z,5.90
2023-08-25T04:38:47.951Z,5.50
2023-08-25T04:39:47.893Z,5.60
2023-08-25T04:40:47.889Z,5.20
2023-08-25T04:41:47.911Z,5.70
2023-08-25T04:42:47.859Z,5.50
2023-08-25T04:43:47.855Z,5.90
2023-08-25T04:44:47.842Z,5.50
2023-08-25T04:45:47.842Z,5.60
2023-08-25T04:46:47.856Z,5.40
2023-08-25T04:47:47.848Z,5.90
2023-08-25T04:48:47.800Z,5.30
2023-08-25T04:49:47.783Z,5.70
2023-08-25T04:50:47.782Z,5.60
2023-08-25T04:51:47.762Z,6.70
2023-08-25T04:52:47.760Z,6.00
2023-08-25T04:53:47.763Z,5.50
2023-08-25T04:54:47.738Z,5.60
2023-08-25T04:55:47.726Z,5.30
2023-08-25T04:56:47.724Z,5.40
2023-08-25T04:57:47.701Z,5.00
2023-08-25T04:58:47.694Z,5.60
2023-08-25T04:59:47.709Z,5.60
2023-08-25T05:00:47.701Z,5.50
2023-08-25T05:01:47.675Z,5.40
2023-08-25T05:02:47.729Z,5.40
2023-08-25T05:03:47.678Z,5.60
2023-08-25T05:04:47.627Z,5.80
2023-08-25T05:05:48.868Z,6.00
2023-08-25T05:06:47.607Z,5.30
2023-08-25T05:07:47.592Z,5.00
2023-08-25T05:08:47.602Z,5.80
2023-08-25T05:09:47.566Z,5.50
2023-08-25T05:10:47.560Z,5.70
2023-08-25T05:11:47.577Z,5.80
2023-08-25T05:12:47.536Z,5.30
2023-08-25T05:13:47.523Z,5.80
2023-08-25T05:14:47.544Z,5.70
2023-08-25T05:15:47.517Z,5.60
2023-08-25T05:16:47.525Z,5.90
2023-08-25T05:17:47.508Z,5.70
2023-08-25T05:18:47.474Z,5.40
2023-08-25T05:19:47.459Z,5.40
2023-08-25T05:20:47.454Z,5.30
2023-08-25T05:21:47.439Z,5.80
2023-08-25T05:22:47.432Z,6.30
2023-08-25T05:23:47.470Z,6.00
2023-08-25T05:24:47.427Z,5.40
2023-08-25T05:25:47.398Z,5.70
2023-08-25T05:26:47.411Z,5.70
2023-08-25T05:27:47.372Z,5.80
2023-08-25T05:28:47.366Z,6.50
2023-08-25T05:29:47.392Z,6.50
2023-08-25T05:30:47.348Z,6.90
2023-08-25T05:31:47.342Z,6.60
2023-08-25T05:32:47.367Z,6.30
2023-08-25T05:33:47.311Z,6.00
2023-08-25T05:34:47.310Z,6.40
2023-08-25T05:35:47.306Z,6.00
2023-08-25T05:36:47.295Z,6.30
2023-08-25T05:37:47.270Z,5.80
2023-08-25T05:38:47.279Z,6.60
2023-08-25T05:39:47.241Z,6.10
2023-08-25T05:40:47.247Z,6.30
2023-08-25T05:41:47.239Z,6.40
2023-08-25T05:42:47.227Z,6.30
2023-08-25T05:43:47.201Z,6.30
2023-08-25T05:44:47.196Z,6.60
2023-08-25T05:45:47.236Z,7.00
2023-08-25T05:46:47.189Z,5.80
2023-08-25T05:47:47.206Z,5.90
2023-08-25T05:48:47.172Z,6.80
2023-08-25T05:49:49.573Z,5.80
2023-08-25T05:50:47.162Z,5.90
2023-08-25T05:51:47.170Z,5.70
2023-08-25T05:52:47.111Z,5.40
2023-08-25T05:53:47.118Z,5.30
2023-08-25T05:54:47.138Z,6.20
2023-08-25T05:55:47.076Z,5.80
2023-08-25T05:56:47.066Z,5.80
2023-08-25T05:57:47.059Z,6.30
2023-08-25T05:58:47.064Z,6.00
2023-08-25T05:59:47.054Z,6.10
2023-08-25T06:00:47.062Z,5.90
2023-08-25T06:01:47.052Z,6.40
2023-08-25T06:02:47.032Z,6.00
2023-08-25T06:03:47.034Z,6.40
2023-08-25T06:04:46.985Z,6.60
2023-08-25T06:05:46.993Z,6.90
2023-08-25T06:06:46.965Z,6.80
2023-08-25T06:07:46.941Z,7.10
2023-08-25T06:08:46.969Z,7.50
2023-08-25T06:09:46.926Z,7.00
2023-08-25T06:10:46.916Z,6.40
2023-08-25T06:11:46.952Z,6.60
2023-08-25T06:12:46.887Z,6.90
2023-08-25T06:13:46.879Z,6.80
2023-08-25T06:14:46.876Z,6.90
2023-08-25T06:15:46.988Z,6.90
2023-08-25T06:16:46.850Z,6.30
2023-08-25T06:17:46.872Z,6.90
2023-08-25T06:18:46.825Z,6.40
2023-08-25T06:19:46.813Z,5.90
2023-08-25T06:20:46.828Z,5.80
2023-08-25T06:21:46.815Z,6.40
2023-08-25T06:22:46.799Z,6.10
2023-08-25T06:23:46.776Z,6.50
2023-08-25T06:24:46.765Z,6.40
2023-08-25T06:25:46.751Z,7.10
2023-08-25T06:26:46.781Z,6.40
2023-08-25T06:27:46.749Z,7.50
2023-08-25T06:28:46.713Z,7.80
2023-08-25T06:29:46.711Z,8.30
2023-08-25T06:30:46.696Z,8.10
2023-08-25T06:31:46.704Z,7.40
2023-08-25T06:32:46.703Z,8.20
2023-08-25T06:33:46.673Z,7.40
2023-08-25T06:34:46.656Z,7.50
2023-08-25T06:35:46.690Z,7.30
2023-08-25T06:36:46.633Z,7.80
2023-08-25T06:37:46.681Z,8.10
2023-08-25T06:38:56.331Z,8.20
2023-08-25T06:39:46.606Z,8.10
2023-08-25T06:40:46.596Z,8.30
2023-08-25T06:41:48.256Z,9.00
2023-08-25T06:42:46.593Z,9.00
2023-08-25T06:43:46.590Z,9.60
2023-08-25T06:44:46.542Z,9.00
2023-08-25T06:45:46.558Z,12.10
2023-08-25T06:46:46.531Z,8.10
2023-08-25T06:47:46.545Z,7.60
2023-08-25T06:48:46.519Z,9.20
2023-08-25T06:49:46.532Z,10.10
2023-08-25T06:50:46.501Z,9.00
2023-08-25T06:51:46.487Z,9.50
2023-08-25T06:52:46.480Z,9.90
2023-08-25T06:53:46.454Z,9.20
2023-08-25T06:54:46.463Z,8.90
2023-08-25T06:55:46.428Z,9.20
2023-08-25T06:56:46.415Z,9.50
2023-08-25T06:57:46.410Z,9.70
2023-08-25T06:58:46.408Z,9.40
2023-08-25T06:59:46.442Z,8.70
2023-08-25T07:00:46.376Z,9.30
2023-08-25T07:01:46.423Z,10.10
2023-08-25T07:02:46.385Z,9.80
2023-08-25T07:03:46.375Z,11.20
2023-08-25T07:04:46.331Z,9.70
2023-08-25T07:05:46.337Z,9.70
2023-08-25T07:06:46.373Z,10.00
2023-08-25T07:07:46.304Z,11.00
2023-08-25T07:08:46.293Z,10.20
2023-08-25T07:09:46.281Z,12.90
2023-08-25T07:10:46.356Z,11.20
2023-08-25T07:11:46.258Z,10.40
2023-08-25T07:12:46.255Z,10.40
2023-08-25T07:13:46.241Z,10.40
2023-08-25T07:14:46.231Z,10.80
2023-08-25T07:15:46.278Z,10.90
2023-08-25T07:16:46.226Z,11.30
2023-08-25T07:17:46.207Z,10.80
2023-08-25T07:18:46.188Z,11.00
2023-08-25T07:19:46.187Z,10.20
2023-08-25T07:20:46.163Z,10.10
2023-08-25T07:21:46.181Z,10.40
2023-08-25T07:22:46.147Z,10.20
2023-08-25T07:23:46.134Z,9.20
2023-08-25T07:24:46.551Z,9.90
2023-08-25T07:25:46.118Z,9.30
2023-08-25T07:26:46.096Z,9.10
2023-08-25T07:27:46.106Z,9.80
2023-08-25T07:28:46.082Z,10.10
2023-08-25T07:29:46.068Z,11.80
2023-08-25T07:30:46.064Z,9.40
2023-08-25T07:31:46.060Z,9.40
2023-08-25T07:32:46.075Z,10.00
2023-08-25T07:33:46.028Z,9.30
2023-08-25T07:34:46.021Z,9.20
2023-08-25T07:35:46.022Z,10.10
2023-08-25T07:36:45.994Z,10.00
2023-08-25T07:37:45.987Z,9.80
2023-08-25T07:38:45.983Z,10.80
2023-08-25T07:39:45.971Z,9.70
2023-08-25T07:40:45.964Z,10.20
2023-08-25T07:41:45.949Z,9.90
2023-08-25T07:42:45.929Z,11.30
2023-08-25T07:43:47.209Z,10.50
2023-08-25T07:44:45.904Z,11.20
2023-08-25T07:45:45.906Z,11.00
2023-08-25T07:46:45.897Z,11.70
2023-08-25T07:47:45.914Z,11.40
2023-08-25T07:48:45.862Z,12.00
2023-08-25T07:49:45.897Z,12.20
2023-08-25T07:50:45.856Z,11.90
2023-08-25T07:51:45.831Z,12.30
2023-08-25T07:52:45.823Z,12.50
2023-08-25T07:53:45.826Z,11.70
2023-08-25T07:54:45.863Z,11.40
2023-08-25T07:55:45.812Z,10.90
2023-08-25T07:56:45.783Z,11.00
2023-08-25T07:57:45.805Z,11.90
2023-08-25T07:58:45.757Z,11.50
2023-08-25T07:59:45.748Z,11.30
2023-08-25T08:00:45.879Z,12.00
2023-08-25T08:01:45.726Z,11.80
2023-08-25T08:02:45.749Z,12.40
2023-08-25T08:03:45.760Z,11.10
2023-08-25T08:04:45.717Z,11.50
2023-08-25T08:05:45.714Z,11.80
2023-08-25T08:06:45.684Z,11.30
2023-08-25T08:07:45.710Z,12.20
2023-08-25T08:08:45.686Z,13.60
2023-08-25T08:09:45.648Z,12.90
2023-08-25T08:10:45.632Z,13.40
2023-08-25T08:11:45.632Z,12.90
2023-08-25T08:12:45.625Z,13.90
2023-08-25T08:13:45.613Z,13.50
2023-08-25T08:14:46.870Z,13.90
2023-08-25T08:15:45.582Z,13.80
2023-08-25T08:16:45.612Z,13.80
2023-08-25T08:17:45.628Z,14.30
2023-08-25T08:18:45.548Z,13.40
2023-08-25T08:19:45.553Z,14.30
2023-08-25T08:20:45.523Z,14.90
2023-08-25T08:21:45.512Z,14.40
2023-08-25T08:22:45.643Z,14.40
2023-08-25T08:23:45.507Z,14.10
2023-08-25T08:24:50.939Z,14.50
2023-08-25T08:25:45.485Z,14.00
2023-08-25T08:26:45.461Z,13.70
2023-08-25T08:27:45.477Z,14.40
2023-08-25T08:28:45.444Z,13.60
2023-08-25T08:29:45.432Z,14.80
2023-08-25T08:30:47.082Z,14.80
2023-08-25T08:31:45.424Z,14.70
2023-08-25T08:32:45.418Z,14.40
2023-08-25T08:33:45.401Z,14.00
2023-08-25T08:34:45.381Z,13.00
2023-08-25T08:35:45.366Z,13.80
2023-08-25T08:36:45.361Z,13.40
2023-08-25T08:37:45.347Z,13.10
2023-08-25T08:38:45.385Z,12.60
2023-08-25T08:39:45.323Z,12.10
2023-08-25T08:40:45.315Z,12.30
2023-08-25T08:41:45.386Z,14.10
2023-08-25T08:42:45.365Z,14.00
2023-08-25T08:43:45.276Z,16.00
2023-08-25T08:44:45.344Z,15.40
2023-08-25T08:45:45.257Z,15.20
2023-08-25T08:46:45.323Z,15.20
2023-08-25T08:47:45.362Z,16.10
2023-08-25T08:48:45.233Z,17.60
2023-08-25T08:49:45.228Z,17.80
2023-08-25T08:50:45.205Z,20.10
2023-08-25T08:51:45.197Z,22.20
2023-08-25T08:52:45.189Z,24.80
2023-08-25T08:53:45.174Z,24.80
2023-08-25T08:54:45.162Z,27.30
2023-08-25T08:55:45.166Z,30.50
2023-08-25T08:56:45.136Z,33.10
2023-08-25T08:57:45.126Z,34.40
2023-08-25T08:58:45.115Z,39.10
2023-08-25T08:59:45.141Z,39.30
2023-08-25T09:00:45.208Z,42.60
2023-08-25T09:01:45.115Z,43.90
2023-08-25T09:02:45.122Z,45.10
2023-08-25T09:03:45.070Z,49.00
2023-08-25T09:04:45.076Z,50.70
2023-08-25T09:05:45.054Z,52.30
2023-08-25T09:06:45.046Z,52.90
2023-08-25T09:07:45.040Z,54.90
2023-08-25T09:08:45.006Z,54.00
2023-08-25T09:09:45.032Z,55.60
2023-08-25T09:10:44.991Z,55.50
2023-08-25T09:11:45.014Z,53.50
2023-08-25T09:12:44.984Z,53.90
2023-08-25T09:13:44.975Z,52.30
2023-08-25T09:14:44.971Z,55.60
2023-08-25T09:15:44.938Z,56.20
2023-08-25T09:16:45.020Z,54.90
2023-08-25T09:17:44.989Z,53.70
2023-08-25T09:18:44.904Z,56.50
2023-08-25T09:19:44.912Z,53.90
2023-08-25T09:20:44.901Z,55.30
2023-08-25T09:21:44.871Z,55.40
2023-08-25T09:22:44.892Z,53.70
2023-08-25T09:23:44.852Z,52.30
2023-08-25T09:24:44.842Z,50.30
2023-08-25T09:25:44.845Z,52.90
2023-08-25T09:26:44.821Z,55.50
2023-08-25T09:27:44.851Z,53.80
2023-08-25T09:28:44.820Z,53.10
2023-08-25T09:29:44.786Z,54.80
2023-08-25T09:30:44.878Z,52.90
2023-08-25T09:31:44.769Z,51.30
2023-08-25T09:32:44.788Z,49.00
2023-08-25T09:33:44.767Z,48.30
2023-08-25T09:34:44.740Z,46.90
2023-08-25T09:35:44.747Z,45.00
2023-08-25T09:36:44.717Z,46.10
2023-08-25T09:37:44.709Z,46.40
2023-08-25T09:38:53.172Z,47.30
2023-08-25T09:39:44.713Z,46.30
2023-08-25T09:40:44.666Z,49.30
2023-08-25T09:41:44.663Z,47.20
2023-08-25T09:42:44.663Z,52.00
2023-08-25T09:43:44.640Z,51.80
2023-08-25T09:44:44.666Z,54.40
2023-08-25T09:45:44.635Z,56.30
2023-08-25T09:46:44.649Z,56.30
2023-08-25T09:47:44.622Z,56.10
2023-08-25T09:48:44.593Z,52.40
2023-08-25T09:49:44.572Z,53.50
2023-08-25T09:50:44.599Z,55.90
2023-08-25T09:51:44.670Z,54.90
2023-08-25T09:52:44.539Z,54.90
2023-08-25T09:53:44.770Z,52.60
2023-08-25T09:54:44.531Z,52.90
2023-08-25T09:55:49.321Z,53.80
2023-08-25T09:56:44.514Z,54.40
2023-08-25T09:57:44.505Z,53.60
2023-08-25T09:58:44.488Z,54.10
2023-08-25T09:59:44.476Z,54.10
2023-08-25T10:00:44.456Z,51.70
2023-08-25T10:01:44.511Z,50.00
2023-08-25T10:02:44.468Z,51.00
2023-08-25T10:03:44.444Z,51.90
2023-08-25T10:04:44.411Z,49.50
2023-08-25T10:05:44.453Z,51.20
2023-08-25T10:06:44.556Z,49.80
2023-08-25T10:07:44.389Z,52.60
2023-08-25T10:08:44.366Z,49.40
2023-08-25T10:09:44.360Z,51.50
2023-08-25T10:10:44.353Z,47.60
2023-08-25T10:11:44.342Z,46.40
2023-08-25T10:12:47.163Z,46.70
2023-08-25T10:13:44.346Z,48.20
2023-08-25T10:14:44.307Z,50.40
2023-08-25T10:15:44.394Z,51.10
2023-08-25T10:16:44.279Z,47.10
2023-08-25T10:17:44.339Z,50.00
2023-08-25T10:18:44.265Z,50.20
2023-08-25T10:19:44.256Z,51.30
2023-08-25T10:20:44.278Z,51.70
2023-08-25T10:21:44.248Z,51.10
2023-08-25T10:22:44.240Z,51.60
2023-08-25T10:23:44.216Z,52.70
2023-08-25T10:24:44.212Z,45.80
2023-08-25T10:25:44.204Z,49.20
2023-08-25T10:26:44.209Z,49.70
2023-08-25T10:27:44.164Z,53.30
2023-08-25T10:28:44.296Z,53.90
2023-08-25T10:29:44.150Z,56.40
2023-08-25T10:30:44.137Z,56.00
2023-08-25T10:31:44.133Z,54.00
2023-08-25T10:32:44.164Z,53.60
2023-08-25T10:33:44.110Z,49.40
2023-08-25T10:34:44.106Z,53.20
2023-08-25T10:35:44.094Z,53.60
2023-08-25T10:36:44.070Z,54.80
2023-08-25T10:37:44.067Z,53.40
2023-08-25T10:38:44.077Z,54.20
2023-08-25T10:39:44.073Z,52.60
2023-08-25T10:40:44.035Z,52.10
2023-08-25T10:41:44.022Z,53.20
2023-08-25T10:42:44.022Z,53.20
2023-08-25T10:43:43.998Z,51.30
2023-08-25T10:44:44.026Z,53.60
2023-08-25T10:45:44.019Z,45.60
2023-08-25T10:46:49.056Z,40.90
2023-08-25T10:47:44.012Z,40.50
2023-08-25T10:48:44.024Z,41.30
2023-08-25T10:49:44.018Z,41.60
2023-08-25T10:50:44.163Z,40.90
2023-08-25T10:51:43.928Z,38.50
2023-08-25T10:52:43.930Z,39.70
2023-08-25T10:53:43.921Z,38.60
2023-08-25T10:54:44.716Z,41.90
2023-08-25T10:55:43.896Z,41.30
2023-08-25T10:56:43.885Z,41.00
2023-08-25T10:57:43.853Z,43.00
2023-08-25T10:58:43.834Z,39.10
2023-08-25T10:59:43.825Z,38.70
2023-08-25T11:00:43.818Z,41.20
2023-08-25T11:01:43.820Z,41.60
2023-08-25T11:02:43.894Z,43.80
2023-08-25T11:03:43.859Z,42.60
2023-08-25T11:04:43.831Z,44.00
2023-08-25T11:05:43.758Z,44.20
2023-08-25T11:06:43.746Z,44.60
2023-08-25T11:07:43.760Z,43.60
2023-08-25T11:08:43.736Z,42.40
2023-08-25T11:09:43.710Z,43.40
2023-08-25T11:10:44.841Z,43.40
2023-08-25T11:11:43.684Z,41.60
2023-08-25T11:12:46.285Z,40.90
2023-08-25T11:13:43.705Z,43.50
2023-08-25T11:14:43.844Z,43.60
2023-08-25T11:15:43.694Z,38.70
2023-08-25T11:16:43.651Z,39.10
2023-08-25T11:17:43.660Z,41.70
2023-08-25T11:18:43.836Z,40.10
2023-08-25T11:19:43.607Z,40.60
2023-08-25T11:20:43.593Z,41.50
2023-08-25T11:21:43.577Z,39.00
2023-08-25T11:22:43.604Z,40.80
2023-08-25T11:23:43.583Z,42.10
2023-08-25T11:24:43.565Z,41.20
2023-08-25T11:25:43.547Z,39.60
2023-08-25T11:26:43.544Z,41.30
2023-08-25T11:27:43.520Z,37.50
2023-08-25T11:28:43.504Z,38.90
2023-08-25T11:29:43.551Z,37.30
2023-08-25T11:30:43.502Z,31.60
2023-08-25T11:31:43.466Z,31.10
2023-08-25T11:32:43.514Z,31.70
2023-08-25T11:33:43.448Z,34.60
2023-08-25T11:34:43.461Z,28.50
2023-08-25T11:35:43.425Z,25.40
2023-08-25T11:36:43.419Z,28.50
2023-08-25T11:37:43.401Z,30.70
2023-08-25T11:38:43.397Z,30.20
2023-08-25T11:39:43.389Z,33.80
2023-08-25T11:40:43.403Z,31.00
2023-08-25T11:41:43.360Z,32.30
2023-08-25T11:42:43.398Z,32.60
2023-08-25T11:43:43.341Z,33.60
2023-08-25T11:44:43.336Z,33.10
2023-08-25T11:45:43.344Z,32.00
2023-08-25T11:46:43.331Z,30.20
2023-08-25T11:47:43.379Z,25.70
2023-08-25T11:48:43.293Z,24.70
2023-08-25T11:49:43.284Z,24.60
2023-08-25T11:50:43.289Z,24.60
2023-08-25T11:51:43.274Z,27.90
2023-08-25T11:52:43.252Z,28.00
2023-08-25T11:53:43.264Z,27.50
2023-08-25T11:54:43.223Z,29.00
2023-08-25T11:55:43.209Z,29.10
2023-08-25T11:56:43.261Z,28.30
2023-08-25T11:57:43.188Z,29.40
2023-08-25T11:58:43.186Z,30.20
2023-08-25T11:59:43.171Z,28.90
2023-08-25T12:00:43.237Z,29.00
2023-08-25T12:01:43.164Z,28.10
2023-08-25T12:02:43.230Z,28.30
2023-08-25T12:03:43.181Z,28.40
2023-08-25T12:04:43.116Z,29.80
2023-08-25T12:05:43.108Z,29.00
2023-08-25T12:06:43.133Z,29.10
2023-08-25T12:07:43.118Z,30.60
2023-08-25T12:08:43.089Z,29.90
2023-08-25T12:09:43.061Z,31.40
2023-08-25T12:10:43.050Z,33.00
2023-08-25T12:11:43.049Z,31.60
2023-08-25T12:12:43.047Z,29.40
2023-08-25T12:13:43.033Z,30.00
2023-08-25T12:14:43.008Z,33.60
2023-08-25T12:15:43.146Z,31.40
2023-08-25T12:16:43.043Z,31.90
2023-08-25T12:17:43.055Z,28.50
2023-08-25T12:18:42.983Z,27.60
2023-08-25T12:19:42.983Z,27.30
2023-08-25T12:20:42.952Z,25.50
2023-08-25T12:21:42.948Z,26.40
2023-08-25T12:22:42.936Z,26.60
2023-08-25T12:23:42.910Z,27.50
2023-08-25T12:24:42.926Z,27.20
2023-08-25T12:25:42.890Z,26.80
2023-08-25T12:26:42.880Z,26.90
2023-08-25T12:27:42.884Z,25.90
2023-08-25T12:28:42.869Z,25.20
2023-08-25T12:29:42.872Z,25.20
2023-08-25T12:30:42.892Z,25.00
2023-08-25T12:31:42.826Z,24.10
2023-08-25T12:32:42.852Z,25.30
2023-08-25T12:33:42.800Z,26.90
2023-08-25T12:34:45.612Z,27.20
2023-08-25T12:35:42.834Z,25.50
2023-08-25T12:36:42.780Z,26.00
2023-08-25T12:37:42.767Z,25.50
2023-08-25T12:38:42.760Z,24.90
2023-08-25T12:39:42.762Z,25.50
2023-08-25T12:40:42.748Z,24.20
2023-08-25T12:41:42.721Z,24.80
2023-08-25T12:42:42.712Z,25.10
2023-08-25T12:43:42.695Z,24.60
2023-08-25T12:44:42.688Z,23.80
2023-08-25T12:45:42.821Z,22.60
2023-08-25T12:46:43.358Z,20.40
2023-08-25T12:47:42.710Z,21.00
2023-08-25T12:48:42.902Z,21.90
2023-08-25T12:49:42.655Z,21.60
2023-08-25T12:50:42.632Z,21.10
2023-08-25T12:51:44.688Z,24.00
2023-08-25T12:52:42.942Z,23.70
2023-08-25T12:53:42.604Z,24.60
2023-08-25T12:54:42.607Z,26.50
2023-08-25T12:55:42.594Z,29.50
2023-08-25T12:56:42.626Z,27.80
2023-08-25T12:57:42.564Z,31.00
2023-08-25T12:58:42.566Z,27.00
2023-08-25T12:59:42.548Z,28.30
2023-08-25T13:00:42.612Z,28.20
2023-08-25T13:01:42.530Z,29.70
2023-08-25T13:02:42.588Z,29.10
2023-08-25T13:03:42.587Z,28.90
2023-08-25T13:04:42.536Z,27.50
2023-08-25T13:05:42.480Z,28.80
2023-08-25T13:06:42.459Z,28.50